createdAt,value
2022-07-30T00:05:17.328Z,18.2
2022-07-30T00:10:57.471Z,18.1
2022-07-30T00:16:37.928Z,18
2022-07-30T00:22:18.955Z,17.9
2022-07-30T00:27:59.254Z,17.8
2022-07-30T00:33:39.176Z,17.8
2022-07-30T00:39:19.416Z,17.6
2022-07-30T00:44:59.354Z,17.6
2022-07-30T00:50:39.393Z,17.5
2022-07-30T00:56:19.416Z,17.4
2022-07-30T01:01:59.618Z,17.4
2022-07-30T01:07:40.780Z,17.2
2022-07-30T01:13:20.794Z,17.2
2022-07-30T01:19:00.840Z,17
2022-07-30T01:24:40.967Z,16.9
2022-07-30T01:30:21.133Z,16.7
2022-07-30T01:36:01.354Z,16.7
2022-07-30T01:41:41.872Z,16.6
2022-07-30T01:47:21.846Z,16.4
2022-07-30T01:53:01.860Z,16.3
2022-07-30T01:58:42.060Z,16.2
2022-07-30T02:04:22.367Z,16.1
2022-07-30T02:10:02.639Z,16.1
2022-07-30T02:15:43.015Z,16.1
2022-07-30T02:21:23.309Z,16
2022-07-30T02:27:17.399Z,16
2022-07-30T02:32:57.597Z,15.9
2022-07-30T02:38:37.777Z,15.9
2022-07-30T02:44:18.317Z,15.8
2022-07-30T02:49:58.451Z,15.8
2022-07-30T02:55:40.164Z,15.7
2022-07-30T03:01:20.529Z,15.6
2022-07-30T03:07:04.927Z,15.6
2022-07-30T03:12:51.623Z,15.6
2022-07-30T03:18:32.316Z,15.5
2022-07-30T03:24:12.702Z,15.4
2022-07-30T03:29:52.919Z,15.4
2022-07-30T03:35:33.129Z,15.3
2022-07-30T03:41:14.065Z,15.4
2022-07-30T03:46:54.171Z,15.3
2022-07-30T03:52:36.678Z,15.3
2022-07-30T03:58:21.744Z,15.2
2022-07-30T04:04:01.922Z,15.1
2022-07-30T04:09:43.022Z,15.1
2022-07-30T04:16:05.396Z,15.1
2022-07-30T04:22:24.701Z,15.4
2022-07-30T04:28:05.527Z,15.4
2022-07-30T04:33:45.536Z,15.5
2022-07-30T04:39:25.843Z,15.7
2022-07-30T04:45:06.081Z,15.8
2022-07-30T04:50:46.564Z,15.9
2022-07-30T04:56:26.863Z,16
2022-07-30T05:02:07.337Z,16.2
2022-07-30T05:07:48.287Z,16.4
2022-07-30T05:13:34.267Z,16.6
2022-07-30T05:19:27.025Z,16.6
2022-07-30T05:25:15.927Z,16.5
2022-07-30T05:30:56.928Z,16.7
2022-07-30T05:36:41.198Z,16.6
2022-07-30T05:42:21.286Z,16.5
2022-07-30T05:48:01.666Z,16.5
2022-07-30T05:53:41.854Z,16.7
2022-07-30T05:59:21.862Z,16.7
2022-07-30T06:05:01.954Z,16.8
2022-07-30T06:10:43.691Z,17.1
2022-07-30T06:16:23.976Z,16.9
2022-07-30T06:22:06.485Z,16.9
2022-07-30T06:27:48.924Z,16.8
2022-07-30T06:33:29.293Z,16.8
2022-07-30T06:39:09.714Z,16.9
2022-07-30T06:44:50.015Z,17
2022-07-30T06:50:30.285Z,17.3
2022-07-30T06:56:10.486Z,17.3
2022-07-30T07:01:50.819Z,17.8
2022-07-30T07:07:41.617Z,18
2022-07-30T07:13:40.662Z,19
2022-07-30T07:20:00.611Z,20.7
2022-07-30T07:25:45.821Z,24
2022-07-30T07:32:04.591Z,23.8
2022-07-30T07:37:49.312Z,22.9
2022-07-30T07:43:29.669Z,23.2
2022-07-30T07:49:10.835Z,24.1
2022-07-30T07:54:51.728Z,22.8
2022-07-30T08:00:33.796Z,25.1
2022-07-30T08:06:15.810Z,28.1
2022-07-30T08:11:56.226Z,26.9
2022-07-30T08:17:35.459Z,25
2022-07-30T08:23:19.900Z,26.3
2022-07-30T08:29:01.708Z,28.2
2022-07-30T08:34:41.187Z,27.2
2022-07-30T08:40:21.876Z,25.3
2022-07-30T08:46:01.828Z,25.3
2022-07-30T08:51:43.555Z,27.4
2022-07-30T08:57:23.195Z,25.9
2022-07-30T09:03:03.496Z,25.1
2022-07-30T09:08:43.973Z,24.3
2022-07-30T09:14:24.438Z,24.9
2022-07-30T09:20:16.299Z,27.2
2022-07-30T09:25:57.046Z,26.3
2022-07-30T09:31:38.777Z,27.6
2022-07-30T09:37:34.776Z,27.8
2022-07-30T09:43:15.715Z,28.6
2022-07-30T09:48:58.351Z,29
2022-07-30T09:54:50.874Z,28.9
2022-07-30T10:00:44.638Z,30.1
2022-07-30T10:06:25.154Z,28.7
2022-07-30T10:12:17.176Z,28.2
2022-07-30T10:18:10.945Z,29.1
2022-07-30T10:24:02.154Z,29.3
2022-07-30T10:29:51.725Z,27.9
2022-07-30T10:35:46.151Z,27.6
2022-07-30T10:41:53.872Z,28.8
2022-07-30T10:47:38.926Z,30.2
2022-07-30T10:53:40.394Z,29.6
2022-07-30T10:59:37.081Z,29.6
2022-07-30T11:05:27.071Z,29.9
2022-07-30T11:11:59.775Z,30
2022-07-30T11:18:00.817Z,30.8
2022-07-30T11:23:56.782Z,29.8
2022-07-30T11:29:50.409Z,31
2022-07-30T11:35:39.204Z,30.7
2022-07-30T11:41:28.380Z,30.6
2022-07-30T11:47:08.458Z,31
2022-07-30T11:52:51.763Z,30.3
2022-07-30T11:58:40.906Z,32
2022-07-30T12:04:21.096Z,30.4
2022-07-30T12:15:12.072Z,30.9
2022-07-30T12:20:55.817Z,33.2
2022-07-30T12:26:42.845Z,34.6
2022-07-30T12:32:23.543Z,34.4
2022-07-30T12:38:03.859Z,33
2022-07-30T12:43:44.240Z,31.8
2022-07-30T12:49:36.496Z,30.8
2022-07-30T12:55:34.734Z,33.5
2022-07-30T13:01:22.518Z,33.2
2022-07-30T13:07:03.340Z,31.3
2022-07-30T13:13:06.937Z,30.5
2022-07-30T13:18:50.653Z,29.6
2022-07-30T13:24:46.151Z,30.5
2022-07-30T13:30:27.258Z,31.5
2022-07-30T13:36:19.846Z,32.1
2022-07-30T13:42:12.719Z,33.8
2022-07-30T13:47:55.787Z,33
2022-07-30T13:53:35.940Z,32.5
2022-07-30T13:59:24.506Z,33.4
2022-07-30T14:05:11.187Z,33.9
2022-07-30T14:11:03.175Z,34.8
2022-07-30T14:16:45.379Z,34.3
2022-07-30T14:22:37.224Z,32.6
2022-07-30T14:28:33.577Z,31.2
2022-07-30T14:40:57.826Z,29.1
2022-07-30T14:53:22.887Z,33.7
2022-07-30T14:59:03.231Z,32.7
2022-07-30T15:04:43.666Z,31.9
2022-07-30T15:10:23.897Z,32.7
2022-07-30T15:16:09.331Z,31.6
2022-07-30T15:21:52.587Z,32.7
2022-07-30T15:27:48.035Z,32.5
2022-07-30T15:33:28.228Z,32.7
2022-07-30T15:39:08.932Z,32.8
2022-07-30T15:45:16.409Z,32.9
2022-07-30T15:51:06.296Z,33.3
2022-07-30T15:56:51.863Z,32.7
2022-07-30T16:02:42.087Z,29.9
2022-07-30T16:08:21.747Z,28.6
2022-07-30T16:14:01.498Z,27.6
2022-07-30T16:19:44.686Z,27.7
2022-07-30T16:25:25.870Z,27.9
2022-07-30T16:31:06.220Z,27.7
2022-07-30T16:36:46.534Z,27.5
2022-07-30T16:42:29.714Z,27.7
2022-07-30T16:48:10.410Z,27.7
2022-07-30T16:53:50.572Z,28
2022-07-30T16:59:30.680Z,27.3
2022-07-30T17:05:13.662Z,27
2022-07-30T17:10:54.517Z,26.6
2022-07-30T17:16:38.410Z,26.5
2022-07-30T17:22:19.675Z,26.5
2022-07-30T17:28:00.143Z,26.3
2022-07-30T17:33:42.026Z,26.4
2022-07-30T17:40:06.088Z,26.2
2022-07-30T17:46:16.214Z,26.6
2022-07-30T17:51:56.260Z,26.6
2022-07-30T17:57:36.420Z,26
2022-07-30T18:03:20.159Z,25.9
2022-07-30T18:09:00.865Z,25.9
2022-07-30T18:14:54.812Z,25.9
2022-07-30T18:20:48.833Z,25.9
2022-07-30T18:26:37.465Z,25.7
2022-07-30T18:32:32.059Z,25.6
2022-07-30T18:38:36.351Z,25.5
2022-07-30T18:44:22.911Z,25.5
2022-07-30T18:50:19.740Z,25.3
2022-07-30T18:56:10.139Z,25.2
2022-07-30T19:02:04.880Z,25
2022-07-30T19:08:07.896Z,24.9
2022-07-30T19:14:07.064Z,24.7
2022-07-30T19:20:00.367Z,24.6
2022-07-30T19:25:49.084Z,24.3
2022-07-30T19:31:34.918Z,24.2
2022-07-30T20:21:57.195Z,25.3
2022-07-30T20:27:39.076Z,24.3
2022-07-30T20:33:38.012Z,23.7
2022-07-30T20:39:40.632Z,23.4
2022-07-30T20:45:40.532Z,23
2022-07-30T20:51:35.084Z,22.8
2022-07-30T20:57:30.752Z,22.5
2022-07-30T21:04:06.154Z,22.5
2022-07-30T21:10:10.999Z,22.3
2022-07-30T21:16:15.546Z,22
2022-07-30T21:22:00.793Z,21.9
2022-07-30T21:27:43.335Z,21.9
2022-07-30T21:33:24.227Z,21.9
2022-07-30T21:39:30.878Z,22
2022-07-30T21:45:42.493Z,22.2
2022-07-30T21:51:38.262Z,22.1
2022-07-30T21:57:52.306Z,22.1
2022-07-30T22:04:00.682Z,21.9
2022-07-30T23:18:39.907Z,22.6
2022-07-30T23:24:19.703Z,21.7
2022-07-30T23:29:59.747Z,21.3
2022-07-30T23:35:42.800Z,21.1
2022-07-30T23:41:29.572Z,21
2022-07-30T23:47:11.149Z,20.9
2022-07-30T23:52:51.291Z,20.9
2022-07-30T23:58:31.501Z,20.8
